createdAt,value
2022-08-26T00:00:20.659Z,100.00
2022-08-26T00:02:49.391Z,100.00
2022-08-26T00:05:20.024Z,100.00
2022-08-26T00:07:48.766Z,100.00
2022-08-26T00:10:18.075Z,100.00
2022-08-26T00:12:48.113Z,100.00
2022-08-26T00:15:19.920Z,100.00
2022-08-26T00:17:49.799Z,100.00
2022-08-26T00:20:21.522Z,100.00
2022-08-26T00:22:49.906Z,100.00
2022-08-26T00:25:19.417Z,100.00
2022-08-26T00:27:49.738Z,100.00
2022-08-26T00:30:24.261Z,100.00
2022-08-26T00:32:56.018Z,100.00
2022-08-26T00:35:25.331Z,100.00
2022-08-26T00:37:57.115Z,100.00
2022-08-26T00:40:29.123Z,100.00
2022-08-26T00:42:59.702Z,100.00
2022-08-26T00:45:28.700Z,100.00
2022-08-26T00:47:59.939Z,100.00
2022-08-26T00:50:32.130Z,100.00
2022-08-26T00:53:02.139Z,100.00
2022-08-26T00:55:34.626Z,100.00
2022-08-26T00:58:08.843Z,100.00
2022-08-26T01:00:37.770Z,100.00
2022-08-26T01:03:07.466Z,100.00
2022-08-26T01:05:40.844Z,100.00
2022-08-26T01:08:09.591Z,100.00
2022-08-26T01:10:37.950Z,100.00
2022-08-26T01:13:11.382Z,100.00
2022-08-26T01:15:44.560Z,100.00
2022-08-26T01:18:14.711Z,100.00
2022-08-26T01:20:52.461Z,100.00
2022-08-26T01:23:32.677Z,100.00
2022-08-26T01:26:03.742Z,100.00
2022-08-26T01:28:35.975Z,100.00
2022-08-26T01:31:06.944Z,100.00
2022-08-26T01:33:42.155Z,100.00
2022-08-26T01:36:12.742Z,100.00
2022-08-26T01:38:43.207Z,100.00
2022-08-26T01:41:19.528Z,100.00
2022-08-26T01:43:49.777Z,100.00
2022-08-26T01:46:19.177Z,100.00
2022-08-26T01:48:47.918Z,100.00
2022-08-26T01:51:21.705Z,100.00
2022-08-26T01:53:51.957Z,100.00
2022-08-26T01:56:23.375Z,100.00
2022-08-26T01:58:53.344Z,100.00
2022-08-26T02:01:23.063Z,100.00
2022-08-26T02:04:04.284Z,100.00
2022-08-26T02:06:33.560Z,100.00
2022-08-26T02:09:06.174Z,100.00
2022-08-26T02:11:36.777Z,100.00
2022-08-26T02:14:07.664Z,100.00
2022-08-26T02:16:42.247Z,100.00
2022-08-26T02:19:17.331Z,100.00
2022-08-26T02:21:51.038Z,100.00
2022-08-26T02:24:27.576Z,100.00
2022-08-26T02:26:58.260Z,100.00
2022-08-26T02:29:31.746Z,100.00
2022-08-26T02:32:00.231Z,100.00
2022-08-26T02:34:32.085Z,100.00
2022-08-26T02:37:01.902Z,100.00
2022-08-26T02:39:32.618Z,100.00
2022-08-26T02:42:01.762Z,100.00
2022-08-26T02:44:30.693Z,100.00
2022-08-26T02:46:59.782Z,100.00
2022-08-26T02:49:30.505Z,100.00
2022-08-26T02:52:01.959Z,100.00
2022-08-26T02:54:32.147Z,100.00
2022-08-26T02:57:02.720Z,100.00
2022-08-26T02:59:32.115Z,100.00
2022-08-26T03:02:01.923Z,100.00
2022-08-26T03:04:33.378Z,100.00
2022-08-26T03:07:02.750Z,100.00
2022-08-26T03:09:32.919Z,100.00
2022-08-26T03:12:01.606Z,100.00
2022-08-26T03:14:30.786Z,100.00
2022-08-26T03:16:59.674Z,100.00
2022-08-26T03:19:27.969Z,100.00
2022-08-26T03:21:57.822Z,100.00
2022-08-26T03:24:27.029Z,100.00
2022-08-26T03:26:57.282Z,100.00
2022-08-26T03:29:42.968Z,100.00
2022-08-26T03:32:11.947Z,100.00
2022-08-26T03:34:40.718Z,100.00
2022-08-26T03:37:09.443Z,100.00
2022-08-26T03:39:38.361Z,100.00
2022-08-26T03:42:08.677Z,100.00
2022-08-26T03:44:42.013Z,100.00
2022-08-26T03:47:11.070Z,100.00
2022-08-26T03:49:39.586Z,100.00
2022-08-26T03:52:08.387Z,100.00
2022-08-26T03:54:37.224Z,100.00
2022-08-26T03:57:06.322Z,100.00
2022-08-26T03:59:36.819Z,100.00
2022-08-26T04:02:08.461Z,100.00
2022-08-26T04:04:39.888Z,100.00
2022-08-26T04:07:09.024Z,100.00
2022-08-26T04:09:37.761Z,100.00
2022-08-26T04:12:09.372Z,100.00
2022-08-26T04:14:39.999Z,100.00
2022-08-26T04:17:08.788Z,100.00
2022-08-26T04:19:37.108Z,100.00
2022-08-26T04:22:06.269Z,100.00
2022-08-26T04:24:34.878Z,100.00
2022-08-26T04:27:03.746Z,100.00
2022-08-26T04:29:32.990Z,100.00
2022-08-26T04:32:04.664Z,100.00
2022-08-26T04:34:34.443Z,100.00
2022-08-26T04:37:03.160Z,100.00
2022-08-26T04:39:32.268Z,100.00
2022-08-26T04:42:01.734Z,100.00
2022-08-26T04:44:31.776Z,100.00
2022-08-26T04:47:00.569Z,100.00
2022-08-26T04:49:35.233Z,100.00
2022-08-26T04:52:05.276Z,100.00
2022-08-26T04:54:33.985Z,100.00
2022-08-26T04:57:02.705Z,100.00
2022-08-26T04:59:32.618Z,100.00
2022-08-26T05:02:03.934Z,100.00
2022-08-26T05:04:36.198Z,100.00
2022-08-26T05:07:06.364Z,100.00
2022-08-26T05:09:34.867Z,100.00
2022-08-26T05:12:03.719Z,100.00
2022-08-26T05:14:33.441Z,100.00
2022-08-26T05:17:02.996Z,100.00
2022-08-26T05:19:31.666Z,100.00
2022-08-26T05:22:02.971Z,100.00
2022-08-26T05:24:31.458Z,100.00
2022-08-26T05:27:00.101Z,100.00
2022-08-26T05:29:28.819Z,100.00
2022-08-26T05:31:57.568Z,100.00
2022-08-26T05:34:30.328Z,100.00
2022-08-26T05:36:59.753Z,100.00
2022-08-26T05:39:29.942Z,100.00
2022-08-26T05:42:00.012Z,100.00
2022-08-26T05:44:28.710Z,100.00
2022-08-26T05:46:57.407Z,100.00
2022-08-26T05:49:26.673Z,100.00
2022-08-26T05:51:55.318Z,100.00
2022-08-26T05:54:24.152Z,100.00
2022-08-26T05:56:54.189Z,100.00
2022-08-26T05:59:24.569Z,100.00
2022-08-26T06:01:53.459Z,100.00
2022-08-26T06:04:23.113Z,100.00
2022-08-26T06:06:56.198Z,100.00
2022-08-26T06:09:26.789Z,100.00
2022-08-26T06:11:59.334Z,100.00
2022-08-26T06:14:28.140Z,100.00
2022-08-26T06:16:56.748Z,100.00
2022-08-26T06:19:25.850Z,100.00
2022-08-26T06:22:23.412Z,100.00
2022-08-26T06:25:10.111Z,100.00
2022-08-26T06:27:40.331Z,100.00
2022-08-26T06:30:10.109Z,100.00
2022-08-26T06:32:39.249Z,100.00
2022-08-26T06:35:12.127Z,100.00
2022-08-26T06:37:41.245Z,100.00
2022-08-26T06:40:11.569Z,99.06
2022-08-26T06:42:42.447Z,98.44
2022-08-26T06:45:12.569Z,96.74
2022-08-26T06:47:41.304Z,98.35
2022-08-26T06:50:10.396Z,99.21
2022-08-26T06:52:38.813Z,100.00
2022-08-26T06:55:08.353Z,100.00
2022-08-26T06:57:41.109Z,99.76
2022-08-26T07:00:13.787Z,99.43
2022-08-26T07:02:47.014Z,96.88
2022-08-26T07:05:16.256Z,93.69
2022-08-26T07:07:44.591Z,93.02
2022-08-26T07:10:13.480Z,87.58
2022-08-26T07:12:43.421Z,86.10
2022-08-26T07:15:17.621Z,82.85
2022-08-26T07:17:52.649Z,83.90
2022-08-26T07:20:21.322Z,82.72
2022-08-26T07:22:49.692Z,77.34
2022-08-26T07:25:19.310Z,73.71
2022-08-26T07:27:54.041Z,64.33
2022-08-26T07:30:25.678Z,54.53
2022-08-26T07:32:57.697Z,49.34
2022-08-26T07:35:27.395Z,41.88
2022-08-26T07:37:57.186Z,39.31
2022-08-26T07:40:26.504Z,35.94
2022-08-26T07:42:55.413Z,30.40
2022-08-26T07:45:25.771Z,32.14
2022-08-26T07:47:54.698Z,30.88
2022-08-26T07:50:48.786Z,29.76
2022-08-26T07:53:12.569Z,28.83
2022-08-26T07:55:43.366Z,27.73
2022-08-26T07:58:13.175Z,24.49
2022-08-26T08:00:43.456Z,25.48
2022-08-26T08:03:15.021Z,25.20
2022-08-26T08:05:48.709Z,24.14
2022-08-26T08:08:26.648Z,24.92
2022-08-26T08:10:57.305Z,24.56
2022-08-26T08:13:26.384Z,26.85
2022-08-26T08:15:56.569Z,29.58
2022-08-26T08:18:25.374Z,30.86
2022-08-26T08:21:05.048Z,33.21
2022-08-26T08:23:43.279Z,35.53
2022-08-26T08:26:13.322Z,40.15
2022-08-26T08:28:41.786Z,37.70
2022-08-26T08:31:38.770Z,44.64
2022-08-26T08:34:09.227Z,39.09
2022-08-26T08:36:38.002Z,44.37
2022-08-26T08:39:07.244Z,42.27
2022-08-26T08:41:45.071Z,48.60
2022-08-26T08:44:16.514Z,44.73
2022-08-26T08:46:46.871Z,45.02
2022-08-26T08:49:16.791Z,41.53
2022-08-26T08:51:51.018Z,39.82
2022-08-26T08:54:22.034Z,43.42
2022-08-26T08:56:53.906Z,44.04
2022-08-26T08:59:24.265Z,43.57
2022-08-26T09:02:02.381Z,35.76
2022-08-26T09:04:46.788Z,35.04
2022-08-26T09:07:18.984Z,37.91
2022-08-26T09:09:51.449Z,38.96
2022-08-26T09:12:29.534Z,38.27
2022-08-26T09:15:03.058Z,37.45
2022-08-26T09:17:41.210Z,34.69
2022-08-26T09:20:15.957Z,36.02
2022-08-26T09:22:44.431Z,32.28
2022-08-26T09:25:15.042Z,28.32
2022-08-26T09:27:46.087Z,26.94
2022-08-26T09:30:17.181Z,26.34
2022-08-26T09:32:59.328Z,26.20
2022-08-26T09:35:31.779Z,24.27
2022-08-26T09:38:00.646Z,23.17
2022-08-26T09:40:34.530Z,25.02
2022-08-26T09:43:09.371Z,26.31
2022-08-26T09:45:39.498Z,26.67
2022-08-26T09:48:10.260Z,28.38
2022-08-26T09:50:54.884Z,29.29
2022-08-26T09:53:30.260Z,28.73
2022-08-26T09:56:14.633Z,28.63
2022-08-26T09:58:45.428Z,28.07
2022-08-26T10:01:18.118Z,29.16
2022-08-26T10:03:50.125Z,30.32
2022-08-26T10:06:28.111Z,32.96
2022-08-26T10:08:59.268Z,33.17
2022-08-26T10:11:35.503Z,32.93
2022-08-26T10:14:07.197Z,30.04
2022-08-26T10:16:48.912Z,26.35
2022-08-26T10:19:23.369Z,27.10
2022-08-26T10:21:55.536Z,27.63
2022-08-26T10:24:27.524Z,28.96
2022-08-26T10:27:01.532Z,24.47
2022-08-26T10:29:34.504Z,24.40
2022-08-26T10:32:07.372Z,24.86
2022-08-26T10:34:43.918Z,24.69
2022-08-26T10:37:16.731Z,22.66
2022-08-26T10:39:57.250Z,20.74
2022-08-26T10:42:30.336Z,20.61
2022-08-26T10:45:06.376Z,20.14
2022-08-26T10:47:44.806Z,18.70
2022-08-26T10:50:15.241Z,19.72
2022-08-26T10:52:56.490Z,18.54
2022-08-26T10:55:31.250Z,14.35
2022-08-26T10:58:09.091Z,12.99
2022-08-26T11:01:01.087Z,12.40
2022-08-26T11:03:35.220Z,12.86
2022-08-26T11:06:26.354Z,13.48
2022-08-26T11:08:56.955Z,13.04
2022-08-26T11:11:46.692Z,12.16
2022-08-26T11:14:46.172Z,11.78
2022-08-26T11:17:58.031Z,11.17
2022-08-26T11:20:37.491Z,11.42
2022-08-26T11:23:40.495Z,10.62
2022-08-26T11:26:35.533Z,10.19
2022-08-26T11:29:12.209Z,10.00
2022-08-26T11:31:57.559Z,10.26
2022-08-26T11:34:56.336Z,10.41
2022-08-26T11:37:30.987Z,10.89
2022-08-26T11:40:05.012Z,11.20
2022-08-26T11:42:38.895Z,10.74
2022-08-26T11:45:18.241Z,10.83
2022-08-26T11:47:49.385Z,8.60
2022-08-26T11:50:23.492Z,12.06
2022-08-26T11:52:53.614Z,11.47
2022-08-26T11:55:24.605Z,12.42
2022-08-26T11:57:54.946Z,12.49
2022-08-26T12:00:25.139Z,11.89
2022-08-26T12:02:55.756Z,11.86
2022-08-26T12:05:30.936Z,12.72
2022-08-26T12:08:04.117Z,13.49
2022-08-26T12:10:35.569Z,14.23
2022-08-26T12:13:06.395Z,15.63
2022-08-26T12:15:36.225Z,17.68
2022-08-26T12:18:28.867Z,19.01
2022-08-26T12:21:00.882Z,19.92
2022-08-26T12:23:43.406Z,20.36
2022-08-26T12:26:22.427Z,19.98
2022-08-26T12:28:57.480Z,18.68
2022-08-26T12:31:31.615Z,16.36
2022-08-26T12:34:02.976Z,14.69
2022-08-26T12:36:33.810Z,13.23
2022-08-26T12:39:10.508Z,14.29
2022-08-26T12:41:47.707Z,15.62
2022-08-26T12:44:53.843Z,17.71
2022-08-26T12:47:30.837Z,17.07
2022-08-26T12:50:13.281Z,17.22
2022-08-26T12:52:45.353Z,17.23
2022-08-26T12:55:21.749Z,19.55
2022-08-26T12:57:51.967Z,20.04
2022-08-26T13:00:42.602Z,18.83
2022-08-26T13:03:43.471Z,19.11
2022-08-26T13:06:18.245Z,18.25
2022-08-26T13:08:48.086Z,16.31
2022-08-26T13:11:20.564Z,16.09
2022-08-26T13:13:53.309Z,15.36
2022-08-26T13:16:23.369Z,15.67
2022-08-26T13:18:54.110Z,15.04
2022-08-26T13:21:25.497Z,14.96
2022-08-26T13:23:55.017Z,15.05
2022-08-26T13:26:23.881Z,13.63
2022-08-26T13:29:01.916Z,14.38
2022-08-26T13:31:33.156Z,14.63
2022-08-26T13:34:03.006Z,15.08
2022-08-26T13:36:31.840Z,17.43
2022-08-26T13:39:00.852Z,18.03
2022-08-26T13:41:29.909Z,18.67
2022-08-26T13:44:00.418Z,19.75
2022-08-26T13:46:30.277Z,20.58
2022-08-26T13:48:59.431Z,22.19
2022-08-26T13:51:29.112Z,23.70
2022-08-26T13:53:58.692Z,24.06
2022-08-26T13:56:29.775Z,25.12
2022-08-26T13:59:01.283Z,25.93
2022-08-26T14:01:32.553Z,24.47
2022-08-26T14:04:03.243Z,24.11
2022-08-26T14:06:32.189Z,21.33
2022-08-26T14:09:01.117Z,19.68
2022-08-26T14:11:29.813Z,20.48
2022-08-26T14:14:09.379Z,20.78
2022-08-26T14:16:59.635Z,20.04
2022-08-26T14:19:29.747Z,20.06
2022-08-26T14:22:00.955Z,18.98
2022-08-26T14:24:31.194Z,18.77
2022-08-26T14:26:59.962Z,18.55
2022-08-26T14:29:30.145Z,17.82
2022-08-26T14:31:59.794Z,18.47
2022-08-26T14:34:28.323Z,18.59
2022-08-26T14:36:56.852Z,20.92
2022-08-26T14:39:25.569Z,22.54
2022-08-26T14:41:56.673Z,21.83
2022-08-26T14:44:30.775Z,21.75
2022-08-26T14:47:02.284Z,21.32
2022-08-26T14:49:31.482Z,21.41
2022-08-26T14:52:00.293Z,22.81
2022-08-26T14:54:30.085Z,23.41
2022-08-26T14:57:01.190Z,21.20
2022-08-26T14:59:33.223Z,20.72
2022-08-26T15:02:02.261Z,20.53
2022-08-26T15:04:32.283Z,20.61
2022-08-26T15:07:01.823Z,20.57
2022-08-26T15:09:33.187Z,20.09
2022-08-26T15:12:02.638Z,21.42
2022-08-26T15:14:33.143Z,22.61
2022-08-26T15:17:02.558Z,21.70
2022-08-26T15:19:31.113Z,20.63
2022-08-26T15:21:59.893Z,19.66
2022-08-26T15:24:29.873Z,19.63
2022-08-26T15:26:58.816Z,19.21
2022-08-26T15:29:27.749Z,19.01
2022-08-26T15:31:57.632Z,19.44
2022-08-26T15:34:27.040Z,21.34
2022-08-26T15:36:55.822Z,23.90
2022-08-26T15:39:24.677Z,25.09
2022-08-26T15:41:53.346Z,24.08
2022-08-26T15:44:22.144Z,23.18
2022-08-26T15:46:55.317Z,22.41
2022-08-26T15:49:28.220Z,20.75
2022-08-26T15:51:56.930Z,20.26
2022-08-26T15:54:25.902Z,18.48
2022-08-26T15:56:54.769Z,19.76
2022-08-26T15:59:23.836Z,19.90
2022-08-26T16:01:52.735Z,20.03
2022-08-26T16:04:21.856Z,19.82
2022-08-26T16:06:52.333Z,19.23
2022-08-26T16:09:24.436Z,18.46
2022-08-26T16:11:53.684Z,18.39
2022-08-26T16:14:22.510Z,18.62
2022-08-26T16:16:51.133Z,19.05
2022-08-26T16:19:20.181Z,19.05
2022-08-26T16:21:50.873Z,18.71
2022-08-26T16:24:24.774Z,18.14
2022-08-26T16:26:56.399Z,18.94
2022-08-26T16:29:26.144Z,19.58
2022-08-26T16:31:54.915Z,19.84
2022-08-26T16:34:23.805Z,21.36
2022-08-26T16:36:53.173Z,22.43
2022-08-26T16:39:23.335Z,24.06
2022-08-26T16:41:52.199Z,25.69
2022-08-26T16:44:22.289Z,27.62
2022-08-26T16:46:50.741Z,28.81
2022-08-26T16:49:27.265Z,31.36
2022-08-26T16:51:56.074Z,33.97
2022-08-26T16:54:26.383Z,36.96
2022-08-26T16:56:55.126Z,37.88
2022-08-26T16:59:24.171Z,38.71
2022-08-26T17:01:52.627Z,39.44
2022-08-26T17:04:22.086Z,41.60
2022-08-26T17:06:51.091Z,43.68
2022-08-26T17:09:19.880Z,43.64
2022-08-26T17:11:50.444Z,43.50
2022-08-26T17:14:19.680Z,43.69
2022-08-26T17:16:51.292Z,45.71
2022-08-26T17:19:20.478Z,47.01
2022-08-26T17:21:49.438Z,48.30
2022-08-26T17:24:18.532Z,49.10
2022-08-26T17:26:48.352Z,48.90
2022-08-26T17:29:20.927Z,52.65
2022-08-26T17:31:49.217Z,53.02
2022-08-26T17:34:18.020Z,52.20
2022-08-26T17:36:46.828Z,53.69
2022-08-26T17:39:15.627Z,54.63
2022-08-26T17:41:44.871Z,56.43
2022-08-26T17:44:13.606Z,57.01
2022-08-26T17:46:43.315Z,59.35
2022-08-26T17:49:11.796Z,61.22
2022-08-26T17:51:41.093Z,62.23
2022-08-26T17:54:09.757Z,60.74
2022-08-26T17:56:38.490Z,61.95
2022-08-26T17:59:07.156Z,65.76
2022-08-26T18:01:36.654Z,65.23
2022-08-26T18:04:06.902Z,65.39
2022-08-26T18:06:35.808Z,67.22
2022-08-26T18:09:05.154Z,67.99
2022-08-26T18:11:34.549Z,69.18
2022-08-26T18:14:03.297Z,70.69
2022-08-26T18:16:38.197Z,71.12
2022-08-26T18:19:08.712Z,76.45
2022-08-26T18:21:37.481Z,73.16
2022-08-26T18:24:08.314Z,74.44
2022-08-26T18:26:41.560Z,75.06
2022-08-26T18:29:11.270Z,76.41
2022-08-26T18:31:39.780Z,77.17
2022-08-26T18:34:12.926Z,77.92
2022-08-26T18:36:41.753Z,78.58
2022-08-26T18:39:11.060Z,78.08
2022-08-26T18:41:44.348Z,80.11
2022-08-26T18:44:14.331Z,80.77
2022-08-26T18:46:42.892Z,82.28
2022-08-26T18:49:13.811Z,83.06
2022-08-26T18:51:44.339Z,83.12
2022-08-26T18:54:13.436Z,85.30
2022-08-26T18:56:43.831Z,85.06
2022-08-26T18:59:13.712Z,85.16
2022-08-26T19:01:43.447Z,84.80
2022-08-26T19:04:15.577Z,86.16
2022-08-26T19:06:45.142Z,87.58
2022-08-26T19:09:14.595Z,86.74
2022-08-26T19:11:43.813Z,89.03
2022-08-26T19:14:14.944Z,88.27
2022-08-26T19:16:44.634Z,89.45
2022-08-26T19:19:15.270Z,91.18
2022-08-26T19:21:44.233Z,92.93
2022-08-26T19:24:15.766Z,92.96
2022-08-26T19:26:45.373Z,94.69
2022-08-26T19:29:14.551Z,94.86
2022-08-26T19:31:43.973Z,95.78
2022-08-26T19:34:14.252Z,97.36
2022-08-26T19:36:46.675Z,99.19
2022-08-26T19:39:15.666Z,100.00
2022-08-26T19:41:44.559Z,100.00
2022-08-26T19:44:35.918Z,100.00
2022-08-26T19:47:04.980Z,100.00
2022-08-26T19:49:35.346Z,100.00
2022-08-26T19:52:04.608Z,100.00
2022-08-26T19:54:33.380Z,100.00
2022-08-26T19:57:02.047Z,100.00
2022-08-26T19:59:33.205Z,100.00
2022-08-26T20:02:02.339Z,100.00
2022-08-26T20:04:31.438Z,100.00
2022-08-26T20:07:05.726Z,100.00
2022-08-26T20:09:35.497Z,100.00
2022-08-26T20:12:06.092Z,100.00
2022-08-26T20:14:35.690Z,100.00
2022-08-26T20:17:05.258Z,100.00
2022-08-26T20:19:51.352Z,100.00
2022-08-26T20:22:22.192Z,100.00
2022-08-26T20:24:51.814Z,100.00
2022-08-26T20:27:22.385Z,100.00
2022-08-26T20:29:51.133Z,100.00
2022-08-26T20:32:20.454Z,100.00
2022-08-26T20:34:49.454Z,100.00
2022-08-26T20:37:18.585Z,100.00
2022-08-26T20:39:52.002Z,100.00
2022-08-26T20:42:20.771Z,100.00
2022-08-26T20:44:54.212Z,100.00
2022-08-26T20:47:24.092Z,100.00
2022-08-26T20:49:52.845Z,100.00
2022-08-26T20:52:21.611Z,100.00
2022-08-26T20:54:51.710Z,100.00
2022-08-26T20:57:22.340Z,100.00
2022-08-26T20:59:51.428Z,100.00
2022-08-26T21:02:20.287Z,100.00
2022-08-26T21:04:48.780Z,100.00
2022-08-26T21:07:17.764Z,100.00
2022-08-26T21:09:46.511Z,100.00
2022-08-26T21:12:16.608Z,100.00
2022-08-26T21:14:49.023Z,100.00
2022-08-26T21:17:18.452Z,100.00
2022-08-26T21:19:46.745Z,100.00
2022-08-26T21:22:15.437Z,100.00
2022-08-26T21:24:44.141Z,100.00
2022-08-26T21:27:12.865Z,100.00
2022-08-26T21:29:47.788Z,100.00
2022-08-26T21:32:17.723Z,100.00
2022-08-26T21:34:46.113Z,100.00
2022-08-26T21:37:16.426Z,100.00
2022-08-26T21:39:45.844Z,100.00
2022-08-26T21:42:14.631Z,100.00
2022-08-26T21:44:50.822Z,100.00
2022-08-26T21:47:23.433Z,100.00
2022-08-26T21:49:52.004Z,100.00
2022-08-26T21:52:22.343Z,100.00
2022-08-26T21:54:51.103Z,100.00
2022-08-26T21:57:20.102Z,100.00
2022-08-26T21:59:49.038Z,100.00
2022-08-26T22:02:18.056Z,100.00
2022-08-26T22:04:48.928Z,100.00
2022-08-26T22:07:19.295Z,100.00
2022-08-26T22:09:48.857Z,100.00
2022-08-26T22:12:18.454Z,100.00
2022-08-26T22:14:47.262Z,100.00
2022-08-26T22:17:17.180Z,100.00
2022-08-26T22:19:48.628Z,100.00
2022-08-26T22:22:18.308Z,100.00
2022-08-26T22:24:47.159Z,100.00
2022-08-26T22:27:15.979Z,100.00
2022-08-26T22:29:46.681Z,100.00
2022-08-26T22:32:15.617Z,100.00
2022-08-26T22:34:44.175Z,100.00
2022-08-26T22:37:14.511Z,100.00
2022-08-26T22:39:43.386Z,100.00
2022-08-26T22:42:12.083Z,100.00
2022-08-26T22:44:41.358Z,100.00
2022-08-26T22:47:10.205Z,100.00
2022-08-26T22:49:38.711Z,100.00
2022-08-26T22:52:07.493Z,100.00
2022-08-26T22:54:37.543Z,100.00
2022-08-26T22:57:06.371Z,100.00
2022-08-26T22:59:35.111Z,100.00
2022-08-26T23:02:03.950Z,100.00
2022-08-26T23:04:32.375Z,100.00
2022-08-26T23:07:03.526Z,100.00
2022-08-26T23:09:32.727Z,100.00
2022-08-26T23:12:02.883Z,100.00
2022-08-26T23:14:31.385Z,100.00
2022-08-26T23:17:00.195Z,100.00
2022-08-26T23:19:28.643Z,100.00
2022-08-26T23:21:57.608Z,100.00
2022-08-26T23:24:26.407Z,100.00
2022-08-26T23:26:55.268Z,100.00
2022-08-26T23:29:25.493Z,100.00
2022-08-26T23:31:54.081Z,100.00
2022-08-26T23:34:40.221Z,100.00
2022-08-26T23:37:10.595Z,100.00
2022-08-26T23:39:39.421Z,100.00
2022-08-26T23:42:08.749Z,100.00
2022-08-26T23:44:39.059Z,100.00
2022-08-26T23:47:08.925Z,100.00
2022-08-26T23:49:37.821Z,100.00
2022-08-26T23:52:24.572Z,100.00
2022-08-26T23:54:53.567Z,100.00
2022-08-26T23:57:24.138Z,100.00
2022-08-26T23:59:54.476Z,100.00
